createdAt,value
2018-04-28T00:04:53.023Z,3.17
2018-04-28T00:09:57.976Z,2.70
2018-04-28T00:15:02.160Z,4.67
2018-04-28T00:20:07.837Z,2.63
2018-04-28T00:25:13.138Z,3.30
2018-04-28T00:30:18.409Z,8.53
2018-04-28T00:35:25.314Z,9.35
2018-04-28T00:40:28.854Z,4.20
2018-04-28T00:45:36.926Z,3.30
2018-04-28T00:50:40.253Z,3.20
2018-04-28T00:55:43.760Z,2.90
2018-04-28T01:00:48.071Z,5.80
2018-04-28T01:05:51.355Z,3.50
2018-04-28T01:10:54.659Z,5.03
2018-04-28T01:16:01.328Z,3.20
2018-04-28T01:21:11.957Z,9.40
2018-04-28T01:26:22.467Z,8.03
2018-04-28T01:31:26.778Z,4.50
2018-04-28T01:36:30.030Z,3.90
2018-04-28T01:41:34.719Z,13.03
2018-04-28T01:46:38.122Z,4.50
2018-04-28T01:51:41.039Z,5.67
2018-04-28T01:56:44.292Z,6.93
2018-04-28T02:01:47.756Z,10.17
2018-04-28T02:06:51.364Z,3.57
2018-04-28T02:11:55.361Z,5.30
2018-04-28T02:16:58.705Z,3.93
2018-04-28T02:22:07.091Z,8.63
2018-04-28T02:27:10.490Z,7.40
2018-04-28T02:32:15.180Z,18.77
2018-04-28T02:37:18.456Z,7.23
2018-04-28T02:42:25.996Z,4.97
2018-04-28T02:47:29.609Z,5.90
2018-04-28T02:52:37.713Z,7.80
2018-04-28T02:57:42.058Z,9.60
2018-04-28T03:02:45.546Z,5.17
2018-04-28T03:07:48.544Z,8.43
2018-04-28T03:12:52.786Z,3.80
2018-04-28T03:17:56.010Z,5.20
2018-04-28T03:22:59.580Z,4.33
2018-04-28T03:28:03.644Z,7.70
2018-04-28T03:33:06.893Z,5.13
2018-04-28T03:38:10.397Z,5.07
2018-04-28T03:43:17.668Z,9.07
2018-04-28T03:48:23.521Z,8.70
2018-04-28T03:53:27.974Z,4.80
2018-04-28T03:59:47.763Z,4.83
2018-04-28T04:04:53.291Z,22.97
2018-04-28T04:09:57.375Z,11.80
2018-04-28T04:15:00.677Z,3.93
2018-04-28T04:20:05.666Z,8.93
2018-04-28T04:25:08.716Z,13.07
2018-04-28T04:30:12.276Z,4.50
2018-04-28T04:35:15.698Z,6.07
2018-04-28T04:40:19.856Z,4.47
2018-04-28T04:45:23.995Z,4.40
2018-04-28T04:50:31.702Z,5.07
2018-04-28T04:55:41.870Z,10.47
2018-04-28T05:00:46.414Z,9.47
2018-04-28T05:05:52.314Z,10.90
2018-04-28T05:10:58.943Z,4.20
2018-04-28T05:16:03.186Z,9.90
2018-04-28T05:21:06.757Z,4.27
2018-04-28T05:26:10.759Z,12.50
2018-04-28T05:31:13.892Z,11.07
2018-04-28T05:36:18.892Z,13.70
2018-04-28T05:41:30.735Z,7.20
2018-04-28T05:46:33.856Z,7.33
2018-04-28T05:51:42.218Z,8.20
2018-04-28T05:56:49.752Z,8.53
2018-04-28T06:01:53.971Z,11.90
2018-04-28T06:07:06.973Z,9.00
2018-04-28T06:12:10.458Z,12.83
2018-04-28T06:17:13.804Z,13.10
2018-04-28T06:22:17.223Z,11.67
2018-04-28T06:27:20.347Z,11.30
2018-04-28T06:32:24.938Z,9.90
2018-04-28T06:37:29.787Z,15.57
2018-04-28T06:42:33.028Z,16.60
2018-04-28T06:47:37.593Z,9.80
2018-04-28T06:52:42.840Z,13.10
2018-04-28T06:57:56.580Z,13.37
2018-04-28T07:03:01.733Z,18.90
2018-04-28T07:08:10.593Z,17.67
2018-04-28T07:13:18.110Z,9.40
2018-04-28T07:18:26.464Z,11.83
2018-04-28T07:23:29.624Z,19.10
2018-04-28T07:28:32.492Z,10.37
2018-04-28T07:33:40.114Z,16.57
2018-04-28T07:38:44.253Z,14.83
2018-04-28T07:43:47.259Z,14.50
2018-04-28T07:48:50.227Z,15.50
2018-04-28T07:53:53.874Z,13.90
2018-04-28T07:58:59.191Z,17.27
2018-04-28T08:04:10.485Z,13.90
2018-04-28T08:09:15.847Z,12.03
2018-04-28T08:14:19.805Z,9.90
2018-04-28T08:19:24.110Z,11.93
2018-04-28T08:24:27.075Z,14.30
2018-04-28T08:29:37.432Z,17.30
2018-04-28T08:34:45.451Z,15.83
2018-04-28T08:39:53.369Z,15.10
2018-04-28T08:45:02.549Z,15.33
2018-04-28T08:50:06.938Z,15.90
2018-04-28T08:55:11.485Z,15.33
2018-04-28T09:00:30.938Z,14.03
2018-04-28T09:05:33.954Z,12.20
2018-04-28T09:10:39.803Z,15.77
2018-04-28T09:15:43.040Z,13.00
2018-04-28T09:20:47.252Z,11.70
2018-04-28T09:25:50.449Z,9.03
2018-04-28T09:30:53.392Z,12.60
2018-04-28T09:35:58.683Z,15.43
2018-04-28T09:41:01.757Z,14.83
2018-04-28T09:46:04.867Z,12.37
2018-04-28T09:51:08.770Z,15.40
2018-04-28T09:56:14.933Z,10.60
2018-04-28T10:01:23.841Z,12.20
2018-04-28T10:06:32.216Z,11.57
2018-04-28T10:11:35.901Z,12.67
2018-04-28T10:16:38.941Z,13.60
2018-04-28T10:21:42.005Z,13.60
2018-04-28T10:26:45.919Z,13.20
2018-04-28T10:31:48.988Z,12.97
2018-04-28T10:36:52.080Z,12.97
2018-04-28T10:41:55.219Z,12.57
2018-04-28T10:46:58.301Z,11.23
2018-04-28T10:52:01.428Z,13.07
2018-04-28T10:57:05.275Z,10.53
2018-04-28T11:02:08.416Z,12.13
2018-04-28T11:07:11.570Z,14.50
2018-04-28T11:12:14.724Z,13.80
2018-04-28T11:17:17.980Z,12.93
2018-04-28T11:22:22.213Z,15.87
2018-04-28T11:27:26.051Z,13.10
2018-04-28T11:32:29.198Z,11.93
2018-04-28T11:37:32.541Z,12.40
2018-04-28T11:42:40.833Z,10.20
2018-04-28T11:47:44.686Z,10.20
2018-04-28T11:52:47.801Z,10.40
2018-04-28T11:57:50.961Z,11.07
2018-04-28T12:02:54.038Z,9.87
2018-04-28T12:07:57.395Z,13.27
2018-04-28T12:13:00.855Z,11.30
2018-04-28T12:18:04.294Z,12.10
2018-04-28T12:23:07.589Z,10.80
2018-04-28T12:28:11.217Z,11.10
2018-04-28T12:33:14.677Z,10.90
2018-04-28T12:38:18.255Z,10.93
2018-04-28T12:43:21.861Z,10.53
2018-04-28T12:48:26.075Z,12.03
2018-04-28T12:53:29.639Z,10.20
2018-04-28T12:58:33.258Z,12.03
2018-04-28T13:03:36.894Z,12.80
2018-04-28T13:08:40.577Z,11.10
2018-04-28T13:13:44.575Z,11.13
2018-04-28T13:18:48.315Z,10.70
2018-04-28T13:23:52.984Z,9.40
2018-04-28T13:28:57.218Z,10.07
2018-04-28T13:34:01.741Z,21.93
2018-04-28T13:39:06.591Z,20.03
2018-04-28T13:44:10.544Z,20.10
2018-04-28T13:49:14.532Z,15.43
2018-04-28T13:54:18.387Z,12.73
2018-04-28T13:59:23.538Z,19.60
2018-04-28T14:04:27.293Z,18.47
2018-04-28T14:09:30.559Z,18.53
2018-04-28T14:14:33.945Z,21.33
2018-04-28T14:19:37.472Z,14.30
2018-04-28T14:24:42.335Z,16.47
2018-04-28T14:29:46.737Z,20.50
2018-04-28T14:34:50.993Z,20.70
2018-04-28T14:39:55.904Z,9.53
2018-04-28T14:45:00.444Z,20.03
2018-04-28T14:50:04.570Z,16.47
2018-04-28T14:55:08.951Z,16.70
2018-04-28T15:00:14.355Z,19.10
2018-04-28T15:05:19.478Z,17.97
2018-04-28T15:10:24.074Z,20.53
2018-04-28T15:15:28.526Z,18.13
2018-04-28T15:20:32.488Z,18.40
2018-04-28T15:25:36.121Z,19.27
2018-04-28T15:30:40.384Z,21.83
2018-04-28T15:35:48.470Z,22.07
2018-04-28T15:40:52.497Z,23.93
2018-04-28T15:45:55.849Z,21.27
2018-04-28T15:51:00.146Z,20.30
2018-04-28T15:56:10.672Z,14.67
2018-04-28T16:01:15.904Z,20.77
2018-04-28T16:06:19.874Z,22.37
2018-04-28T16:11:23.638Z,19.60
2018-04-28T16:16:27.083Z,18.53
2018-04-28T16:21:31.000Z,19.90
2018-04-28T16:26:34.526Z,18.67
2018-04-28T16:31:38.021Z,12.17
2018-04-28T16:36:42.614Z,16.30
2018-04-28T16:41:46.026Z,16.50
2018-04-28T16:46:50.102Z,22.17
2018-04-28T16:51:54.027Z,18.70
2018-04-28T16:56:58.271Z,16.93
2018-04-28T17:02:02.760Z,28.00
2018-04-28T17:07:07.261Z,25.13
2018-04-28T17:12:11.744Z,23.07
2018-04-28T17:17:21.566Z,25.70
2018-04-28T17:22:26.633Z,29.13
2018-04-28T17:27:31.304Z,19.90
2018-04-28T17:32:38.317Z,28.57
2018-04-28T17:37:44.114Z,27.43
2018-04-28T17:42:50.177Z,28.23
2018-04-28T17:47:55.098Z,19.27
2018-04-28T17:52:59.505Z,27.47
2018-04-28T17:58:03.598Z,17.67
2018-04-28T18:03:10.496Z,23.43
2018-04-28T18:08:14.814Z,21.70
2018-04-28T18:13:20.044Z,24.43
2018-04-28T18:18:24.681Z,28.90
2018-04-28T18:23:29.258Z,27.30
2018-04-28T18:28:35.024Z,29.50
2018-04-28T18:33:40.699Z,25.83
2018-04-28T18:38:49.074Z,30.60
2018-04-28T18:43:53.313Z,30.53
2018-04-28T18:48:57.313Z,33.40
2018-04-28T18:54:01.227Z,35.47
2018-04-28T18:59:05.119Z,38.50
2018-04-28T19:04:09.909Z,36.93
2018-04-28T19:09:15.341Z,39.40
2018-04-28T19:14:19.577Z,41.10
2018-04-28T19:19:24.838Z,42.30
2018-04-28T19:24:28.993Z,41.30
2018-04-28T19:29:34.122Z,49.40
2018-04-28T19:34:38.497Z,49.30
2018-04-28T19:39:42.505Z,54.67
2018-04-28T19:44:48.585Z,48.93
2018-04-28T19:49:53.104Z,53.20
2018-04-28T19:54:59.234Z,44.13
2018-04-28T20:00:04.509Z,53.73
2018-04-28T20:05:08.853Z,49.00
2018-04-28T20:10:12.822Z,52.53
2018-04-28T20:15:16.631Z,44.27
2018-04-28T20:20:20.485Z,52.20
2018-04-28T20:25:25.632Z,58.73
2018-04-28T20:30:29.452Z,60.30
2018-04-28T20:35:33.106Z,61.63
2018-04-28T20:40:36.578Z,63.83
2018-04-28T20:45:40.424Z,63.80
2018-04-28T20:50:44.457Z,56.13
2018-04-28T20:55:48.532Z,68.10
2018-04-28T21:00:51.824Z,72.40
2018-04-28T21:05:56.634Z,70.00
2018-04-28T21:11:00.557Z,75.50
2018-04-28T21:16:04.876Z,69.10
2018-04-28T21:21:08.292Z,71.90
2018-04-28T21:26:11.724Z,77.47
2018-04-28T21:31:15.116Z,85.10
2018-04-28T21:36:18.431Z,76.73
2018-04-28T21:41:21.726Z,64.03
2018-04-28T21:46:25.819Z,77.00
2018-04-28T21:51:29.262Z,78.23
2018-04-28T21:56:33.014Z,73.20
2018-04-28T22:01:36.209Z,69.23
2018-04-28T22:06:39.978Z,83.40
2018-04-28T22:11:42.860Z,88.60
2018-04-28T22:16:45.970Z,91.90
2018-04-28T22:21:49.199Z,86.07
2018-04-28T22:26:52.078Z,94.07
2018-04-28T22:31:54.909Z,98.23
2018-04-28T22:36:58.014Z,93.73
2018-04-28T22:42:01.017Z,95.77
2018-04-28T22:47:04.329Z,48.73
2018-04-28T22:52:09.959Z,77.17
2018-04-28T22:57:12.819Z,82.07
2018-04-28T23:02:15.629Z,76.10
2018-04-28T23:07:18.786Z,93.77
2018-04-28T23:12:22.092Z,71.50
2018-04-28T23:17:25.364Z,58.33
2018-04-28T23:22:28.460Z,31.83
2018-04-28T23:27:31.439Z,93.77
2018-04-28T23:32:34.247Z,86.73
2018-04-28T23:37:37.218Z,34.33
2018-04-28T23:42:41.133Z,95.70
2018-04-28T23:47:44.495Z,85.93
2018-04-28T23:52:47.367Z,103.80
2018-04-28T23:57:50.300Z,100.73
